createdAt,value
2019-05-26T00:00:34.930Z,10.03
2019-05-26T00:03:08.580Z,10.03
2019-05-26T00:05:41.047Z,10.03
2019-05-26T00:08:13.315Z,10.03
2019-05-26T00:10:45.803Z,10.05
2019-05-26T00:13:18.271Z,10.04
2019-05-26T00:15:50.965Z,10.06
2019-05-26T00:18:23.340Z,10.08
2019-05-26T00:20:56.120Z,10.14
2019-05-26T00:23:29.681Z,10.22
2019-05-26T00:26:02.241Z,10.32
2019-05-26T00:28:34.785Z,10.41
2019-05-26T00:31:07.450Z,10.48
2019-05-26T00:33:40.075Z,10.54
2019-05-26T00:36:12.695Z,10.61
2019-05-26T00:38:45.175Z,10.67
2019-05-26T00:41:17.820Z,10.71
2019-05-26T00:43:50.524Z,10.74
2019-05-26T00:46:23.055Z,10.79
2019-05-26T00:48:55.580Z,10.82
2019-05-26T00:51:28.483Z,10.86
2019-05-26T00:54:01.093Z,10.88
2019-05-26T00:56:33.710Z,10.93
2019-05-26T00:59:06.630Z,10.99
2019-05-26T01:01:39.226Z,11.03
2019-05-26T01:04:11.825Z,11.07
2019-05-26T01:06:44.295Z,11.10
2019-05-26T01:09:17.520Z,11.10
2019-05-26T01:11:51.474Z,11.14
2019-05-26T01:14:24.008Z,11.15
2019-05-26T01:16:57.975Z,11.17
2019-05-26T01:19:32.010Z,11.17
2019-05-26T01:22:06.130Z,11.16
2019-05-26T01:24:39.985Z,11.16
2019-05-26T01:27:12.715Z,11.18
2019-05-26T01:29:45.309Z,11.17
2019-05-26T01:32:17.730Z,11.20
2019-05-26T01:34:50.168Z,11.18
2019-05-26T01:37:22.771Z,11.21
2019-05-26T01:39:55.665Z,11.20
2019-05-26T01:42:28.236Z,11.20
2019-05-26T01:45:00.757Z,11.22
2019-05-26T01:47:34.645Z,11.25
2019-05-26T01:50:08.539Z,11.26
2019-05-26T01:52:41.118Z,11.28
2019-05-26T01:55:13.544Z,11.29
2019-05-26T01:57:46.375Z,11.32
2019-05-26T02:00:19.005Z,11.36
2019-05-26T02:02:51.815Z,11.40
2019-05-26T02:05:24.193Z,11.43
2019-05-26T02:07:56.935Z,11.45
2019-05-26T02:10:29.709Z,11.47
2019-05-26T02:13:02.135Z,11.45
2019-05-26T02:15:34.748Z,11.45
2019-05-26T02:18:07.863Z,11.46
2019-05-26T02:20:40.425Z,11.48
2019-05-26T02:23:13.165Z,11.50
2019-05-26T02:25:45.586Z,11.51
2019-05-26T02:28:17.990Z,11.52
2019-05-26T02:30:50.432Z,11.53
2019-05-26T02:33:22.921Z,11.55
2019-05-26T02:35:55.386Z,11.55
2019-05-26T02:38:27.851Z,11.56
2019-05-26T02:41:00.316Z,11.57
2019-05-26T02:43:33.210Z,11.59
2019-05-26T02:46:06.235Z,11.59
2019-05-26T02:48:38.755Z,11.58
2019-05-26T02:51:11.136Z,11.55
2019-05-26T02:53:43.601Z,11.57
2019-05-26T02:56:16.283Z,11.62
2019-05-26T02:58:48.850Z,11.66
2019-05-26T03:01:21.765Z,11.72
2019-05-26T03:03:55.056Z,11.73
2019-05-26T03:06:29.690Z,11.75
2019-05-26T03:09:21.172Z,11.77
2019-05-26T03:11:41.057Z,11.75
2019-05-26T03:14:14.614Z,11.78
2019-05-26T03:16:48.672Z,11.79
2019-05-26T03:19:21.380Z,11.83
2019-05-26T03:21:56.749Z,11.86
2019-05-26T03:24:30.932Z,11.87
2019-05-26T03:27:03.392Z,11.89
2019-05-26T03:29:35.905Z,11.94
2019-05-26T03:32:08.593Z,11.98
2019-05-26T03:34:41.281Z,12.04
2019-05-26T03:37:13.796Z,12.06
2019-05-26T03:39:46.712Z,12.09
2019-05-26T03:42:19.276Z,12.10
2019-05-26T03:44:51.735Z,12.09
2019-05-26T03:47:24.141Z,12.19
2019-05-26T03:49:56.757Z,12.27
2019-05-26T03:52:29.365Z,12.34
2019-05-26T03:55:02.106Z,12.39
2019-05-26T03:57:35.163Z,12.43
2019-05-26T04:00:09.685Z,12.43
2019-05-26T04:02:42.166Z,12.47
2019-05-26T04:05:15.710Z,12.51
2019-05-26T04:07:48.092Z,12.56
2019-05-26T04:10:20.807Z,12.58
2019-05-26T04:12:53.141Z,12.60
2019-05-26T04:15:26.331Z,12.61
2019-05-26T04:17:58.746Z,12.66
2019-05-26T04:20:31.352Z,12.69
2019-05-26T04:23:04.201Z,12.69
2019-05-26T04:25:37.011Z,12.69
2019-05-26T04:28:09.565Z,12.69
2019-05-26T04:30:41.950Z,12.68
2019-05-26T04:33:14.610Z,12.82
2019-05-26T04:35:47.027Z,12.90
2019-05-26T04:38:19.465Z,13.00
2019-05-26T04:40:51.860Z,12.96
2019-05-26T04:43:24.401Z,13.09
2019-05-26T04:45:56.796Z,13.10
2019-05-26T04:48:29.354Z,13.16
2019-05-26T04:51:02.727Z,13.26
2019-05-26T04:53:35.712Z,13.36
2019-05-26T04:56:08.145Z,13.42
2019-05-26T04:58:40.672Z,13.51
2019-05-26T05:01:13.076Z,13.70
2019-05-26T05:03:45.516Z,13.85
2019-05-26T05:06:17.980Z,14.04
2019-05-26T05:08:50.706Z,14.22
2019-05-26T05:11:23.285Z,14.41
2019-05-26T05:13:55.815Z,14.44
2019-05-26T05:16:28.590Z,14.54
2019-05-26T05:19:00.989Z,14.66
2019-05-26T05:21:33.535Z,14.75
2019-05-26T05:24:06.010Z,14.88
2019-05-26T05:26:38.635Z,14.94
2019-05-26T05:29:11.063Z,15.20
2019-05-26T05:31:43.621Z,15.99
2019-05-26T05:34:16.131Z,16.82
2019-05-26T05:36:48.754Z,16.52
2019-05-26T05:39:21.275Z,16.01
2019-05-26T05:41:53.866Z,15.90
2019-05-26T05:44:26.560Z,15.87
2019-05-26T05:46:59.077Z,15.89
2019-05-26T05:49:31.489Z,15.92
2019-05-26T05:52:05.430Z,15.96
2019-05-26T05:54:38.094Z,15.93
2019-05-26T05:57:10.750Z,15.97
2019-05-26T05:59:43.110Z,15.81
2019-05-26T06:02:15.518Z,16.01
2019-05-26T06:04:48.080Z,16.72
2019-05-26T06:07:20.905Z,16.90
2019-05-26T06:09:54.135Z,16.71
2019-05-26T06:12:26.625Z,16.38
2019-05-26T06:14:59.090Z,16.46
2019-05-26T06:17:31.890Z,16.70
2019-05-26T06:20:06.132Z,16.74
2019-05-26T06:22:38.770Z,16.92
2019-05-26T06:25:11.575Z,16.95
2019-05-26T06:27:44.292Z,17.10
2019-05-26T06:30:17.400Z,17.19
2019-05-26T06:32:50.030Z,17.45
2019-05-26T06:35:22.580Z,17.55
2019-05-26T06:37:55.140Z,17.49
2019-05-26T06:40:27.673Z,17.73
2019-05-26T06:43:00.491Z,18.26
2019-05-26T06:45:34.014Z,18.99
2019-05-26T06:48:06.575Z,18.67
2019-05-26T06:50:39.045Z,18.89
2019-05-26T06:53:11.745Z,19.37
2019-05-26T06:55:44.116Z,19.83
2019-05-26T06:58:16.860Z,20.16
2019-05-26T07:00:49.590Z,20.39
2019-05-26T07:03:22.278Z,20.18
2019-05-26T07:05:55.125Z,20.34
2019-05-26T07:08:27.875Z,19.88
2019-05-26T07:11:00.751Z,20.37
2019-05-26T07:13:33.255Z,20.71
2019-05-26T07:16:06.625Z,20.63
2019-05-26T07:18:39.082Z,20.46
2019-05-26T07:21:11.850Z,20.74
2019-05-26T07:23:44.310Z,20.36
2019-05-26T07:26:16.815Z,20.39
2019-05-26T07:28:49.745Z,20.78
2019-05-26T07:31:22.733Z,20.95
2019-05-26T07:33:55.367Z,20.64
2019-05-26T07:36:27.999Z,20.63
2019-05-26T07:39:00.580Z,20.73
2019-05-26T07:41:33.290Z,21.13
2019-05-26T07:44:05.966Z,21.22
2019-05-26T07:46:38.515Z,21.33
2019-05-26T07:49:10.895Z,21.30
2019-05-26T07:51:44.750Z,21.47
2019-05-26T07:54:25.716Z,21.76
2019-05-26T07:56:51.716Z,21.22
2019-05-26T07:59:24.106Z,20.74
2019-05-26T08:01:56.740Z,21.18
2019-05-26T08:04:29.440Z,21.66
2019-05-26T08:07:01.898Z,21.75
2019-05-26T08:09:34.492Z,21.83
2019-05-26T08:12:07.495Z,21.84
2019-05-26T08:14:39.905Z,21.99
2019-05-26T08:17:12.586Z,21.89
2019-05-26T08:19:45.110Z,20.88
2019-05-26T08:22:17.655Z,20.50
2019-05-26T08:24:50.412Z,20.69
2019-05-26T08:27:24.180Z,20.74
2019-05-26T08:29:57.135Z,20.43
2019-05-26T08:32:29.660Z,21.46
2019-05-26T08:35:02.176Z,21.99
2019-05-26T08:37:35.651Z,22.12
2019-05-26T08:40:21.196Z,22.53
2019-05-26T08:42:54.351Z,22.74
2019-05-26T08:45:27.010Z,23.21
2019-05-26T08:47:59.615Z,23.31
2019-05-26T08:50:34.481Z,23.57
2019-05-26T08:53:06.526Z,23.67
2019-05-26T08:55:39.310Z,23.85
2019-05-26T08:58:11.976Z,23.77
2019-05-26T09:00:44.440Z,23.53
2019-05-26T09:03:17.115Z,23.62
2019-05-26T09:05:50.210Z,23.74
2019-05-26T09:08:22.547Z,24.09
2019-05-26T09:10:55.205Z,24.01
2019-05-26T09:13:27.965Z,23.52
2019-05-26T09:16:00.460Z,23.82
2019-05-26T09:18:33.008Z,23.92
2019-05-26T09:21:05.775Z,23.99
2019-05-26T09:23:38.355Z,23.93
2019-05-26T09:26:11.070Z,24.04
2019-05-26T09:28:45.056Z,24.07
2019-05-26T09:31:17.781Z,24.10
2019-05-26T09:33:50.403Z,23.82
2019-05-26T09:36:22.960Z,23.42
2019-05-26T09:38:55.405Z,22.85
2019-05-26T09:41:28.010Z,23.04
2019-05-26T09:44:00.570Z,23.11
2019-05-26T09:46:33.037Z,23.12
2019-05-26T09:49:05.772Z,23.48
2019-05-26T09:51:38.412Z,23.86
2019-05-26T09:54:12.705Z,23.40
2019-05-26T09:56:45.130Z,23.76
2019-05-26T09:59:17.801Z,24.00
2019-05-26T10:01:50.179Z,24.48
2019-05-26T10:04:22.970Z,24.43
2019-05-26T10:06:55.675Z,24.32
2019-05-26T10:09:28.421Z,23.60
2019-05-26T10:12:00.870Z,23.85
2019-05-26T10:14:33.800Z,24.21
2019-05-26T10:17:06.470Z,24.71
2019-05-26T10:19:39.236Z,24.43
2019-05-26T10:22:11.892Z,24.54
2019-05-26T10:24:44.506Z,24.55
2019-05-26T10:27:17.385Z,24.16
2019-05-26T10:29:50.095Z,23.25
2019-05-26T10:32:22.715Z,24.23
2019-05-26T10:34:55.160Z,24.39
2019-05-26T10:37:29.645Z,24.82
2019-05-26T10:40:02.414Z,24.90
2019-05-26T10:42:36.630Z,24.64
2019-05-26T10:45:11.562Z,24.46
2019-05-26T10:47:44.261Z,25.15
2019-05-26T10:50:18.335Z,24.99
2019-05-26T10:52:51.125Z,25.30
2019-05-26T10:55:23.422Z,25.57
2019-05-26T10:57:56.309Z,25.56
2019-05-26T11:00:32.814Z,25.51
2019-05-26T11:03:04.209Z,24.55
2019-05-26T11:05:36.596Z,24.73
2019-05-26T11:08:09.350Z,25.34
2019-05-26T11:10:41.740Z,25.47
2019-05-26T11:13:14.576Z,25.63
2019-05-26T11:15:47.836Z,25.90
2019-05-26T11:18:20.599Z,25.51
2019-05-26T11:20:53.281Z,25.71
2019-05-26T11:23:25.830Z,25.74
2019-05-26T11:25:59.469Z,25.55
2019-05-26T11:28:32.126Z,25.88
2019-05-26T11:31:04.741Z,25.77
2019-05-26T11:33:37.586Z,25.55
2019-05-26T11:36:09.975Z,25.76
2019-05-26T11:38:42.590Z,25.49
2019-05-26T11:41:15.766Z,25.56
2019-05-26T11:43:48.476Z,26.20
2019-05-26T11:46:21.187Z,26.40
2019-05-26T11:48:53.875Z,25.98
2019-05-26T11:51:26.458Z,25.51
2019-05-26T11:53:58.962Z,25.46
2019-05-26T11:56:31.496Z,25.37
2019-05-26T11:59:04.366Z,25.60
2019-05-26T12:01:37.214Z,25.47
2019-05-26T12:04:10.006Z,25.56
2019-05-26T12:06:42.427Z,25.49
2019-05-26T12:09:15.072Z,25.20
2019-05-26T12:11:47.610Z,25.50
2019-05-26T12:14:33.655Z,26.00
2019-05-26T12:16:54.490Z,26.35
2019-05-26T12:19:26.975Z,26.61
2019-05-26T12:21:59.455Z,26.99
2019-05-26T12:24:31.982Z,27.24
2019-05-26T12:27:04.555Z,27.30
2019-05-26T12:29:37.040Z,27.52
2019-05-26T12:32:09.585Z,27.07
2019-05-26T12:34:43.445Z,27.44
2019-05-26T12:37:16.134Z,26.54
2019-05-26T12:39:48.858Z,26.50
2019-05-26T12:42:21.410Z,26.89
2019-05-26T12:44:54.110Z,27.30
2019-05-26T12:47:26.635Z,26.70
2019-05-26T12:49:59.489Z,27.31
2019-05-26T12:52:32.130Z,27.03
2019-05-26T12:55:09.513Z,26.98
2019-05-26T12:57:40.792Z,27.18
2019-05-26T13:00:14.536Z,27.10
2019-05-26T13:02:47.867Z,26.60
2019-05-26T13:05:21.975Z,26.24
2019-05-26T13:07:54.555Z,26.75
2019-05-26T13:10:27.405Z,26.80
2019-05-26T13:12:59.905Z,26.30
2019-05-26T13:15:32.675Z,26.56
2019-05-26T13:18:05.281Z,26.70
2019-05-26T13:20:37.750Z,26.69
2019-05-26T13:23:10.335Z,26.23
2019-05-26T13:25:42.860Z,26.31
2019-05-26T13:28:15.422Z,26.41
2019-05-26T13:30:48.040Z,26.73
2019-05-26T13:33:20.648Z,26.89
2019-05-26T13:35:53.159Z,26.46
2019-05-26T13:38:25.695Z,25.96
2019-05-26T13:40:58.270Z,25.95
2019-05-26T13:43:30.972Z,25.91
2019-05-26T13:46:03.505Z,25.53
2019-05-26T13:48:36.167Z,26.04
2019-05-26T13:51:08.805Z,25.85
2019-05-26T13:53:41.480Z,25.79
2019-05-26T13:56:15.105Z,26.01
2019-05-26T13:58:47.630Z,25.91
2019-05-26T14:01:20.085Z,26.09
2019-05-26T14:03:52.686Z,26.03
2019-05-26T14:06:25.220Z,26.14
2019-05-26T14:08:57.965Z,25.84
2019-05-26T14:11:30.475Z,25.92
2019-05-26T14:14:04.800Z,25.88
2019-05-26T14:16:38.243Z,26.00
2019-05-26T14:19:10.835Z,26.09
2019-05-26T14:21:44.555Z,25.89
2019-05-26T14:24:17.413Z,25.87
2019-05-26T14:26:50.019Z,25.42
2019-05-26T14:29:22.905Z,25.52
2019-05-26T14:31:55.521Z,25.55
2019-05-26T14:34:28.212Z,25.42
2019-05-26T14:37:00.973Z,25.45
2019-05-26T14:39:34.141Z,25.31
2019-05-26T14:42:06.850Z,25.19
2019-05-26T14:44:39.320Z,25.18
2019-05-26T14:47:11.888Z,24.90
2019-05-26T14:49:44.450Z,24.80
2019-05-26T14:52:16.933Z,24.45
2019-05-26T14:54:49.841Z,24.29
2019-05-26T14:57:22.475Z,24.04
2019-05-26T14:59:55.008Z,23.96
2019-05-26T15:02:27.721Z,23.88
2019-05-26T15:05:00.156Z,23.96
2019-05-26T15:07:32.685Z,23.93
2019-05-26T15:10:08.775Z,24.09
2019-05-26T15:12:41.460Z,24.16
2019-05-26T15:15:14.466Z,24.31
2019-05-26T15:17:47.086Z,24.07
2019-05-26T15:20:20.174Z,23.84
2019-05-26T15:22:52.980Z,23.66
2019-05-26T15:25:25.631Z,23.65
2019-05-26T15:27:58.012Z,23.41
2019-05-26T15:30:30.510Z,23.25
2019-05-26T15:33:02.978Z,23.39
2019-05-26T15:35:35.335Z,23.35
2019-05-26T15:38:07.915Z,23.40
2019-05-26T15:40:40.326Z,23.43
2019-05-26T15:43:12.873Z,23.60
2019-05-26T15:45:45.490Z,23.72
2019-05-26T15:48:18.112Z,23.73
2019-05-26T15:50:52.065Z,23.78
2019-05-26T15:53:24.597Z,23.97
2019-05-26T15:55:57.170Z,23.75
2019-05-26T15:58:29.975Z,23.75
2019-05-26T16:01:02.400Z,23.61
2019-05-26T16:03:35.160Z,23.64
2019-05-26T16:06:07.890Z,23.34
2019-05-26T16:08:41.624Z,23.40
2019-05-26T16:11:14.586Z,23.09
2019-05-26T16:13:47.367Z,23.12
2019-05-26T16:16:19.927Z,23.13
2019-05-26T16:18:52.570Z,23.15
2019-05-26T16:21:28.373Z,23.13
2019-05-26T16:23:59.420Z,23.19
2019-05-26T16:26:32.050Z,23.13
2019-05-26T16:29:05.570Z,23.00
2019-05-26T16:31:38.072Z,23.03
2019-05-26T16:34:10.750Z,23.06
2019-05-26T16:36:43.468Z,23.10
2019-05-26T16:39:17.010Z,23.00
2019-05-26T16:41:49.526Z,23.06
2019-05-26T16:44:22.173Z,23.00
2019-05-26T16:46:56.822Z,22.95
2019-05-26T16:49:29.185Z,22.95
2019-05-26T16:52:02.805Z,22.84
2019-05-26T16:54:35.760Z,22.85
2019-05-26T16:57:08.501Z,22.91
2019-05-26T16:59:41.031Z,22.87
2019-05-26T17:02:13.970Z,22.85
2019-05-26T17:04:46.682Z,22.89
2019-05-26T17:07:19.172Z,22.82
2019-05-26T17:09:51.736Z,22.80
2019-05-26T17:12:24.490Z,22.76
2019-05-26T17:14:57.600Z,22.75
2019-05-26T17:17:30.181Z,22.64
2019-05-26T17:20:03.294Z,22.67
2019-05-26T17:22:37.460Z,22.66
2019-05-26T17:25:10.450Z,22.67
2019-05-26T17:27:43.176Z,22.66
2019-05-26T17:30:16.246Z,22.65
2019-05-26T17:32:48.795Z,22.50
2019-05-26T17:35:21.535Z,22.44
2019-05-26T17:37:55.551Z,22.29
2019-05-26T17:40:28.120Z,22.09
2019-05-26T17:43:00.636Z,21.95
2019-05-26T17:45:33.530Z,21.75
2019-05-26T17:48:06.091Z,21.66
2019-05-26T17:50:38.605Z,21.56
2019-05-26T17:53:11.015Z,21.37
2019-05-26T17:55:43.865Z,21.28
2019-05-26T17:58:16.376Z,21.17
2019-05-26T18:00:49.020Z,21.05
2019-05-26T18:03:21.710Z,20.95
2019-05-26T18:05:54.137Z,20.82
2019-05-26T18:08:27.797Z,20.74
2019-05-26T18:11:00.351Z,20.65
2019-05-26T18:13:32.839Z,20.59
2019-05-26T18:16:05.490Z,20.54
2019-05-26T18:18:38.139Z,20.45
2019-05-26T18:21:12.111Z,20.39
2019-05-26T18:23:44.722Z,20.35
2019-05-26T18:26:17.181Z,20.29
2019-05-26T18:28:50.031Z,20.26
2019-05-26T18:31:22.564Z,20.23
2019-05-26T18:33:55.371Z,20.16
2019-05-26T18:36:28.290Z,20.08
2019-05-26T18:39:01.205Z,20.01
2019-05-26T18:41:34.760Z,19.93
2019-05-26T18:44:07.686Z,19.87
2019-05-26T18:46:40.268Z,19.80
2019-05-26T18:49:13.834Z,19.73
2019-05-26T18:51:46.372Z,19.68
2019-05-26T18:54:19.065Z,19.64
2019-05-26T18:56:51.586Z,19.57
2019-05-26T18:59:24.185Z,19.50
2019-05-26T19:01:56.710Z,19.48
2019-05-26T19:04:29.310Z,19.42
2019-05-26T19:07:01.875Z,19.38
2019-05-26T19:09:34.760Z,19.34
2019-05-26T19:12:07.516Z,19.31
2019-05-26T19:14:40.672Z,19.26
2019-05-26T19:17:13.271Z,19.25
2019-05-26T19:19:46.010Z,19.22
2019-05-26T19:22:19.094Z,19.18
2019-05-26T19:24:51.795Z,19.17
2019-05-26T19:27:24.425Z,19.15
2019-05-26T19:29:57.246Z,19.13
2019-05-26T19:32:30.123Z,19.12
2019-05-26T19:35:03.055Z,19.09
2019-05-26T19:37:35.765Z,19.07
2019-05-26T19:40:11.017Z,19.04
2019-05-26T19:42:43.960Z,19.01
2019-05-26T19:45:16.998Z,18.99
2019-05-26T19:47:49.761Z,18.95
2019-05-26T19:50:22.306Z,18.93
2019-05-26T19:52:54.756Z,18.90
2019-05-26T19:55:27.450Z,18.87
2019-05-26T19:58:00.390Z,18.84
2019-05-26T20:00:33.122Z,18.82
2019-05-26T20:03:06.560Z,18.78
2019-05-26T20:05:39.281Z,18.76
2019-05-26T20:08:13.125Z,18.74
2019-05-26T20:10:45.965Z,18.71
2019-05-26T20:13:18.485Z,18.67
2019-05-26T20:15:51.311Z,18.65
2019-05-26T20:18:23.846Z,18.61
2019-05-26T20:20:56.675Z,18.57
2019-05-26T20:23:29.498Z,18.55
2019-05-26T20:26:02.050Z,18.52
2019-05-26T20:28:35.865Z,18.50
2019-05-26T20:31:08.425Z,18.48
2019-05-26T20:33:41.012Z,18.45
2019-05-26T20:36:13.596Z,18.43
2019-05-26T20:38:46.175Z,18.40
2019-05-26T20:41:18.770Z,18.37
2019-05-26T20:43:51.630Z,18.36
2019-05-26T20:46:24.483Z,18.35
2019-05-26T20:48:57.100Z,18.35
2019-05-26T20:51:29.840Z,18.31
2019-05-26T20:54:02.254Z,18.28
2019-05-26T20:56:34.815Z,18.27
2019-05-26T20:59:07.305Z,18.25
2019-05-26T21:01:40.046Z,18.22
2019-05-26T21:04:12.745Z,18.19
2019-05-26T21:06:45.670Z,18.15
2019-05-26T21:09:18.561Z,18.10
2019-05-26T21:11:51.425Z,18.06
2019-05-26T21:14:25.221Z,17.98
2019-05-26T21:16:57.960Z,17.91
2019-05-26T21:19:31.800Z,17.82
2019-05-26T21:22:04.621Z,17.74
2019-05-26T21:24:37.101Z,17.66
2019-05-26T21:27:09.646Z,17.58
2019-05-26T21:29:42.231Z,17.49
2019-05-26T21:32:14.922Z,17.40
2019-05-26T21:34:47.182Z,17.29
2019-05-26T21:37:20.040Z,17.19
2019-05-26T21:39:52.420Z,17.12
2019-05-26T21:42:24.890Z,17.06
2019-05-26T21:44:57.574Z,16.96
2019-05-26T21:47:30.186Z,16.89
2019-05-26T21:50:02.743Z,16.80
2019-05-26T21:52:35.514Z,16.73
2019-05-26T21:55:08.485Z,16.65
2019-05-26T21:57:41.071Z,16.58
2019-05-26T22:00:15.932Z,16.52
2019-05-26T22:02:51.306Z,16.44
2019-05-26T22:05:23.880Z,16.37
2019-05-26T22:07:56.257Z,16.30
2019-05-26T22:10:28.805Z,16.25
2019-05-26T22:13:01.329Z,16.20
2019-05-26T22:15:34.130Z,16.13
2019-05-26T22:18:07.010Z,16.08
2019-05-26T22:20:39.365Z,16.01
2019-05-26T22:23:12.270Z,15.94
2019-05-26T22:25:45.015Z,15.87
2019-05-26T22:28:17.591Z,15.81
2019-05-26T22:30:49.975Z,15.75
2019-05-26T22:33:22.450Z,15.69
2019-05-26T22:35:55.061Z,15.63
2019-05-26T22:38:27.807Z,15.57
2019-05-26T22:41:01.526Z,15.53
2019-05-26T22:43:34.001Z,15.48
2019-05-26T22:46:06.396Z,15.42
2019-05-26T22:48:38.835Z,15.38
2019-05-26T22:51:11.650Z,15.35
2019-05-26T22:53:43.992Z,15.33
2019-05-26T22:56:16.751Z,15.31
2019-05-26T22:58:49.476Z,15.30
2019-05-26T23:01:21.993Z,15.30
2019-05-26T23:03:54.625Z,15.27
2019-05-26T23:06:27.793Z,15.24
2019-05-26T23:09:00.093Z,15.21
2019-05-26T23:11:33.970Z,15.17
2019-05-26T23:14:07.902Z,15.12
2019-05-26T23:16:41.755Z,15.07
2019-05-26T23:19:19.472Z,15.02
2019-05-26T23:21:50.111Z,15.00
2019-05-26T23:24:23.825Z,14.96
2019-05-26T23:26:57.810Z,14.93
2019-05-26T23:29:31.665Z,14.88
2019-05-26T23:32:05.710Z,14.84
2019-05-26T23:34:39.477Z,14.79
2019-05-26T23:37:13.340Z,14.77
2019-05-26T23:39:47.095Z,14.73
2019-05-26T23:42:20.920Z,14.70
2019-05-26T23:44:53.326Z,14.65
2019-05-26T23:47:25.761Z,14.61
2019-05-26T23:49:58.131Z,14.56
2019-05-26T23:52:30.830Z,14.51
2019-05-26T23:55:04.400Z,14.49
2019-05-26T23:57:36.797Z,14.47
